Time;durP1;ratioP1;P1;durP2;ratioP2;P2;SDS_P1;SDS_P2;PMS_P1;PMS_P2;Temp;Humidity;BMP_temperature;BMP_pressure;BME280_temperature;BME280_humidity;BME280_pressure;Samples;Min_cycle;Max_cycle;Signal;HPM_P1;HPM_P2
2022/06/29 00:00:21;;;;;;;;;;;;;;;20.66;47.06;100536.13;4933831;28;7142;-78
2022/06/29 00:02:48;;;;;;;;;;;;;;;20.61;47.50;100533.50;4963558;28;7126;-78
2022/06/29 00:05:21;;;;;;;;;;;;;;;20.57;47.30;100534.34;4977026;28;7007;-77
2022/06/29 00:07:48;;;;;;;;;;;;;;;20.55;47.44;100536.03;4962427;28;6991;-77
2022/06/29 00:10:14;;;;;;;;;;;;;;;20.51;47.38;100540.34;4947193;28;7137;-78
2022/06/29 00:12:42;;;;;;;;;;;;;;;20.44;47.75;100537.66;4964556;28;7216;-77
2022/06/29 00:15:09;;;;;;;;;;;;;;;20.37;48.25;100540.19;4965993;28;7000;-78
2022/06/29 00:17:35;;;;;;;;;;;;;;;20.33;47.75;100548.84;4963133;28;7197;-78
2022/06/29 00:20:04;;;;;;;;;;;;;;;20.27;48.69;100535.75;4974643;28;7259;-78
2022/06/29 00:22:31;;;;;;;;;;;;;;;20.24;48.48;100535.75;4952017;28;7018;-78
2022/06/29 00:24:57;;;;;;;;;;;;;;;20.22;48.33;100532.25;4958733;28;8653;-78
2022/06/29 00:27:24;;;;;;;;;;;;;;;20.21;48.61;100530.53;4951315;28;6804;-77
2022/06/29 00:29:50;;;;;;;;;;;;;;;20.18;48.93;100531.34;4944384;28;6800;-78
2022/06/29 00:32:16;;;;;;;;;;;;;;;20.12;48.93;100537.38;4945278;28;7442;-77
2022/06/29 00:34:42;;;;;;;;;;;;;;;20.10;49.17;100539.09;4952659;28;6804;-78
2022/06/29 00:37:09;;;;;;;;;;;;;;;20.07;48.87;100543.38;4965213;28;8617;-77
2022/06/29 00:39:35;;;;;;;;;;;;;;;20.03;49.26;100532.06;4958934;28;6969;-78
2022/06/29 00:42:02;;;;;;;;;;;;;;;20.01;49.12;100543.28;4934832;28;6969;-78
2022/06/29 00:44:28;;;;;;;;;;;;;;;19.97;49.41;100532.88;4936615;28;6988;-78
2022/06/29 00:47:03;;;;;;;;;;;;;;;19.93;49.73;100538.88;4963631;28;10336;-77
2022/06/29 00:49:30;;;;;;;;;;;;;;;19.89;49.97;100539.66;4934839;28;8580;-78
2022/06/29 00:51:57;;;;;;;;;;;;;;;19.87;49.87;100536.19;4954755;28;6971;-78
2022/06/29 00:54:24;;;;;;;;;;;;;;;19.83;49.74;100527.47;4960304;28;6977;-77
2022/06/29 00:56:51;;;;;;;;;;;;;;;19.79;50.12;100522.22;4974845;28;7185;-78
2022/06/29 00:59:25;;;;;;;;;;;;;;;19.78;50.43;100525.66;4950366;28;7864;-78
2022/06/29 01:01:51;;;;;;;;;;;;;;;19.77;49.95;100521.34;4946505;28;7370;-78
2022/06/29 01:04:17;;;;;;;;;;;;;;;19.77;50.32;100516.97;4931622;28;8413;-78
2022/06/29 01:06:44;;;;;;;;;;;;;;;19.76;50.13;100517.84;4951830;28;6951;-78
2022/06/29 01:09:10;;;;;;;;;;;;;;;19.79;49.85;100517.88;4945079;28;7179;-77
2022/06/29 01:11:37;;;;;;;;;;;;;;;19.82;50.07;100511.84;4975511;28;6980;-77
2022/06/29 01:14:03;;;;;;;;;;;;;;;19.83;49.67;100514.47;4970102;28;7122;-77
2022/06/29 01:16:29;;;;;;;;;;;;;;;19.84;50.00;100513.59;4966606;28;8778;-78
2022/06/29 01:18:55;;;;;;;;;;;;;;;19.85;49.71;100512.75;4978511;28;8439;-78
2022/06/29 01:21:23;;;;;;;;;;;;;;;19.88;50.07;100516.22;4947128;28;6776;-78
2022/06/29 01:23:49;;;;;;;;;;;;;;;19.86;49.84;100503.25;4978221;28;6961;-77
2022/06/29 01:26:15;;;;;;;;;;;;;;;19.87;49.89;100507.56;4967722;28;8574;-78
2022/06/29 01:28:46;;;;;;;;;;;;;;;19.85;49.59;100507.56;4953274;28;7392;-78
2022/06/29 01:31:14;;;;;;;;;;;;;;;19.82;49.24;100514.44;4960067;28;6970;-77
2022/06/29 01:33:40;;;;;;;;;;;;;;;19.78;49.50;100510.94;4961964;28;6930;-78
2022/06/29 01:36:06;;;;;;;;;;;;;;;19.75;49.58;100512.63;4963764;28;8589;-77
2022/06/29 01:38:33;;;;;;;;;;;;;;;19.70;49.52;100513.44;4975336;28;7351;-78
2022/06/29 01:40:58;;;;;;;;;;;;;;;19.65;49.53;100509.03;4974095;28;6964;-77
2022/06/29 01:43:24;;;;;;;;;;;;;;;19.61;49.78;100502.06;4954705;28;8072;-78
2022/06/29 01:45:49;;;;;;;;;;;;;;;19.59;49.71;100509.84;4962330;28;6949;-78
2022/06/29 01:48:16;;;;;;;;;;;;;;;19.55;49.74;100508.94;4975571;28;6772;-78
2022/06/29 01:50:42;;;;;;;;;;;;;;;19.54;49.71;100507.19;4965139;28;7011;-78
2022/06/29 01:53:08;;;;;;;;;;;;;;;19.52;49.96;100502.81;4962209;28;7207;-78
2022/06/29 01:55:33;;;;;;;;;;;;;;;19.50;49.72;100495.00;4971856;28;7188;-78
2022/06/29 01:57:59;;;;;;;;;;;;;;;19.48;49.72;100494.09;4959297;28;6800;-78
2022/06/29 02:00:25;;;;;;;;;;;;;;;19.47;49.98;100491.50;4950602;28;6959;-77
2022/06/29 02:02:50;;;;;;;;;;;;;;;19.47;49.96;100484.56;4964765;28;8502;-77
2022/06/29 02:05:16;;;;;;;;;;;;;;;19.46;49.95;100485.41;4950039;28;7196;-78
2022/06/29 02:07:41;;;;;;;;;;;;;;;19.45;49.84;100488.88;4948806;28;6780;-77
2022/06/29 02:10:08;;;;;;;;;;;;;;;19.43;49.72;100491.44;4948520;28;6847;-78
2022/06/29 02:12:33;;;;;;;;;;;;;;;19.41;49.58;100495.75;4961275;28;8437;-78
2022/06/29 02:14:59;;;;;;;;;;;;;;;19.37;50.23;100483.59;4944744;28;7364;-78
2022/06/29 02:17:25;;;;;;;;;;;;;;;19.34;49.83;100482.66;4948631;28;6844;-78
2022/06/29 02:19:50;;;;;;;;;;;;;;;19.28;49.84;100480.88;4958341;28;8374;-78
2022/06/29 02:22:16;;;;;;;;;;;;;;;19.23;50.03;100474.72;4956769;28;6788;-78
2022/06/29 02:24:41;;;;;;;;;;;;;;;19.18;50.17;100469.47;4942826;28;6796;-78
2022/06/29 02:27:07;;;;;;;;;;;;;;;19.12;50.10;100472.84;4943135;28;6864;-78
2022/06/29 02:29:33;;;;;;;;;;;;;;;19.09;50.41;100471.94;4961501;28;7274;-78
2022/06/29 02:34:46;;;;;;;;;;;;;;;18.95;50.81;100466.50;4945676;28;6801;-77
2022/06/29 02:37:16;;;;;;;;;;;;;;;18.90;50.73;100465.59;4961668;28;6970;-77
2022/06/29 02:39:43;;;;;;;;;;;;;;;18.83;51.06;100464.59;4955738;28;7219;-77
2022/06/29 02:42:10;;;;;;;;;;;;;;;18.77;51.04;100457.59;4960226;28;6800;-77
2022/06/29 02:44:37;;;;;;;;;;;;;;;18.73;51.42;100469.69;4950708;28;8459;-79
2022/06/29 02:47:05;;;;;;;;;;;;;;;18.69;51.45;100462.66;4962648;28;6855;-78
2022/06/29 02:49:31;;;;;;;;;;;;;;;18.67;51.60;100461.78;4947592;28;6804;-78
2022/06/29 02:51:57;;;;;;;;;;;;;;;18.64;51.80;100464.34;4956644;28;7772;-78
2022/06/29 02:54:22;;;;;;;;;;;;;;;18.63;51.91;100459.97;4975082;28;7257;-80
2022/06/29 02:56:48;;;;;;;;;;;;;;;18.60;51.69;100462.53;4947066;28;7361;-80
2022/06/29 02:59:14;;;;;;;;;;;;;;;18.59;52.08;100460.78;4944317;28;6800;-80
2022/06/29 03:01:40;;;;;;;;;;;;;;;18.58;52.36;100462.50;4959379;28;7133;-80
2022/06/29 03:04:05;;;;;;;;;;;;;;;18.55;52.25;100459.84;4964726;28;6800;-80
2022/06/29 03:06:31;;;;;;;;;;;;;;;18.53;51.98;100455.47;4947285;28;7272;-80
2022/06/29 03:08:57;;;;;;;;;;;;;;;18.49;51.95;100453.69;4952069;28;6764;-79
2022/06/29 03:11:23;;;;;;;;;;;;;;;18.46;51.63;100450.22;4976179;28;6780;-80
2022/06/29 03:13:48;;;;;;;;;;;;;;;18.44;52.11;100451.88;4962285;28;6991;-80
2022/06/29 03:16:14;;;;;;;;;;;;;;;18.41;51.89;100451.00;4938147;28;7225;-80
2022/06/29 03:18:40;;;;;;;;;;;;;;;18.36;51.88;100444.84;4963588;28;6784;-79
2022/06/29 03:21:06;;;;;;;;;;;;;;;18.31;52.08;100442.16;4955286;28;6963;-79
2022/06/29 03:23:32;;;;;;;;;;;;;;;18.28;52.19;100448.16;4946037;28;7179;-79
2022/06/29 03:25:57;;;;;;;;;;;;;;;18.27;52.56;100445.56;4978811;28;6859;-79
2022/06/29 03:28:24;;;;;;;;;;;;;;;18.27;52.26;100443.81;4948325;28;6914;-79
2022/06/29 03:30:49;;;;;;;;;;;;;;;18.29;52.10;100446.47;4961987;28;7749;-79
2022/06/29 03:33:16;;;;;;;;;;;;;;;18.34;52.74;100444.78;4965954;28;6784;-79
2022/06/29 03:35:42;;;;;;;;;;;;;;;18.38;52.60;100438.81;4979887;28;7584;-79
2022/06/29 03:38:07;;;;;;;;;;;;;;;18.43;52.56;100439.75;4981064;28;7281;-79
2022/06/29 03:40:33;;;;;;;;;;;;;;;18.50;51.81;100438.16;4976365;28;8679;-80
2022/06/29 03:42:59;;;;;;;;;;;;;;;18.56;52.00;100437.38;4956186;28;6788;-79
2022/06/29 03:45:24;;;;;;;;;;;;;;;18.61;51.96;100427.94;4947814;28;6840;-79
2022/06/29 03:47:50;;;;;;;;;;;;;;;18.69;52.14;100428.91;4978241;28;6954;-80
2022/06/29 03:50:16;;;;;;;;;;;;;;;18.73;52.09;100432.44;4953899;28;6816;-80
2022/06/29 03:52:42;;;;;;;;;;;;;;;18.77;51.80;100421.25;4966819;28;6952;-80
2022/06/29 03:55:08;;;;;;;;;;;;;;;18.83;52.21;100431.72;4951629;28;6772;-80
2022/06/29 03:57:34;;;;;;;;;;;;;;;18.88;51.66;100432.69;4975713;28;8520;-79
2022/06/29 03:59:59;;;;;;;;;;;;;;;18.90;52.06;100427.50;4973841;28;6784;-80
2022/06/29 04:02:26;;;;;;;;;;;;;;;18.94;52.08;100425.81;4959780;28;7291;-80
2022/06/29 04:04:52;;;;;;;;;;;;;;;18.98;51.66;100438.84;4947529;28;6784;-79
2022/06/29 04:07:18;;;;;;;;;;;;;;;18.98;52.17;100431.06;4933407;28;7084;-80
2022/06/29 04:09:44;;;;;;;;;;;;;;;19.03;51.57;100425.13;4961653;28;6967;-79
2022/06/29 04:12:09;;;;;;;;;;;;;;;19.08;52.13;100426.91;4975992;28;6848;-80
2022/06/29 04:14:35;;;;;;;;;;;;;;;19.15;51.38;100420.94;4960568;28;7180;-80
2022/06/29 04:17:02;;;;;;;;;;;;;;;19.23;51.73;100427.97;4970564;28;6772;-80
2022/06/29 04:19:27;;;;;;;;;;;;;;;19.27;51.31;100428.00;4956528;28;6990;-80
2022/06/29 04:21:54;;;;;;;;;;;;;;;19.33;50.99;100427.22;4944520;28;7813;-80
2022/06/29 04:24:21;;;;;;;;;;;;;;;19.38;50.71;100428.16;4932268;28;7331;-80
2022/06/29 04:26:48;;;;;;;;;;;;;;;19.47;50.89;100422.19;4975590;28;7090;-80
2022/06/29 04:29:14;;;;;;;;;;;;;;;19.54;51.04;100418.81;4948756;28;6796;-80
2022/06/29 04:31:40;;;;;;;;;;;;;;;19.63;51.03;100423.22;4948932;28;7244;-80
2022/06/29 04:34:06;;;;;;;;;;;;;;;19.71;50.73;100420.72;4970692;28;7240;-80
2022/06/29 04:36:32;;;;;;;;;;;;;;;19.80;50.78;100418.22;4965428;28;7038;-80
2022/06/29 04:38:58;;;;;;;;;;;;;;;19.90;50.46;100419.19;4972833;28;7218;-79
2022/06/29 04:41:24;;;;;;;;;;;;;;;20.01;50.44;100418.44;4948543;28;6845;-79
2022/06/29 04:43:50;;;;;;;;;;;;;;;20.10;50.77;100403.81;4953098;28;6994;-79
2022/06/29 04:46:19;;;;;;;;;;;;;;;20.21;50.58;100403.00;4952826;28;6777;-80
2022/06/29 04:48:58;;;;;;;;;;;;;;;20.30;50.31;100410.91;4954506;28;6968;-80
2022/06/29 04:51:27;;;;;;;;;;;;;;;20.39;49.86;100408.38;4949973;28;7111;-80
2022/06/29 04:53:54;;;;;;;;;;;;;;;20.49;49.48;100406.69;4980165;28;6988;-80
2022/06/29 04:56:41;;;;;;;;;;;;;;;20.62;49.66;100406.78;4980402;28;6868;-80
2022/06/29 04:59:07;;;;;;;;;;;;;;;20.89;50.73;100403.50;4972633;28;7236;-80
2022/06/29 05:01:33;;;;;;;;;;;;;;;21.30;50.84;100401.97;4966726;28;7231;-80
2022/06/29 05:03:59;;;;;;;;;;;;;;;21.71;49.90;100394.28;4966023;28;6995;-79
2022/06/29 05:06:25;;;;;;;;;;;;;;;22.03;48.78;100396.03;4960516;28;6860;-79
2022/06/29 05:08:52;;;;;;;;;;;;;;;22.27;48.10;100400.41;4978257;28;7235;-81
2022/06/29 05:11:18;;;;;;;;;;;;;;;22.46;47.55;100397.78;4974494;28;6999;-80
2022/06/29 05:13:45;;;;;;;;;;;;;;;22.63;47.53;100391.69;4956624;28;6792;-80
2022/06/29 05:16:11;;;;;;;;;;;;;;;22.80;47.11;100391.66;4958427;28;8072;-79
2022/06/29 05:18:37;;;;;;;;;;;;;;;23.05;48.44;100397.66;4962473;28;7397;-79
2022/06/29 05:21:03;;;;;;;;;;;;;;;23.48;48.27;100396.63;4943668;28;6991;-79
2022/06/29 05:23:30;;;;;;;;;;;;;;;23.99;48.96;100388.44;4951319;28;7207;-79
2022/06/29 05:25:57;;;;;;;;;;;;;;;24.55;47.96;100387.97;4981058;28;7066;-80
2022/06/29 05:28:22;;;;;;;;;;;;;;;25.01;46.78;100390.13;4954769;28;7880;-79
2022/06/29 05:30:50;;;;;;;;;;;;;;;25.28;45.08;100388.03;4976581;28;6959;-79
2022/06/29 05:33:16;;;;;;;;;;;;;;;25.41;44.03;100386.13;4975826;28;6997;-79
2022/06/29 05:35:42;;;;;;;;;;;;;;;25.41;43.49;100388.75;4963831;28;7149;-79
2022/06/29 05:38:08;;;;;;;;;;;;;;;25.34;43.31;100385.31;4951250;28;6872;-79
2022/06/29 05:40:34;;;;;;;;;;;;;;;25.24;43.33;100387.22;4961304;28;6847;-79
2022/06/29 05:43:00;;;;;;;;;;;;;;;25.19;43.67;100386.38;4979413;28;7317;-79
2022/06/29 05:45:27;;;;;;;;;;;;;;;25.19;43.54;100384.66;4953077;28;7172;-79
2022/06/29 05:47:53;;;;;;;;;;;;;;;25.22;43.74;100387.22;4950155;28;7150;-80
2022/06/29 05:50:21;;;;;;;;;;;;;;;25.24;43.07;100390.69;4981238;28;6895;-79
2022/06/29 05:52:48;;;;;;;;;;;;;;;25.27;42.71;100381.91;4978114;28;6962;-79
2022/06/29 05:55:13;;;;;;;;;;;;;;;25.30;42.13;100378.38;4951761;28;7039;-79
2022/06/29 05:57:39;;;;;;;;;;;;;;;25.33;42.14;100376.59;4961307;28;6768;-79
2022/06/29 06:00:06;;;;;;;;;;;;;;;25.40;42.22;100381.75;4961447;28;6948;-79
2022/06/29 06:02:32;;;;;;;;;;;;;;;25.46;41.86;100381.66;4950235;28;6816;-79
2022/06/29 06:04:58;;;;;;;;;;;;;;;25.51;42.11;100379.88;4971625;28;6840;-79
2022/06/29 06:07:23;;;;;;;;;;;;;;;25.55;41.72;100384.19;4973105;28;6832;-79
2022/06/29 06:09:49;;;;;;;;;;;;;;;25.57;42.03;100390.28;4977067;28;6784;-80
2022/06/29 06:12:16;;;;;;;;;;;;;;;25.60;41.33;100381.50;4968185;28;8585;-78
2022/06/29 06:14:42;;;;;;;;;;;;;;;25.61;41.42;100381.47;4971396;28;7141;-79
2022/06/29 06:17:08;;;;;;;;;;;;;;;25.62;41.39;100367.47;4931868;28;7164;-79
2022/06/29 06:19:34;;;;;;;;;;;;;;;25.60;41.47;100374.50;4978203;28;7066;-78
2022/06/29 06:21:59;;;;;;;;;;;;;;;25.61;41.49;100375.34;4973882;28;6943;-78
2022/06/29 06:24:25;;;;;;;;;;;;;;;25.60;42.01;100373.63;4971527;28;6788;-79
2022/06/29 06:26:51;;;;;;;;;;;;;;;25.60;42.31;100374.50;4969653;28;6979;-78
2022/06/29 06:29:16;;;;;;;;;;;;;;;25.61;41.79;100376.25;4949316;28;6939;-79
2022/06/29 06:31:42;;;;;;;;;;;;;;;25.67;42.39;100371.78;4958016;28;6788;-79
2022/06/29 06:34:08;;;;;;;;;;;;;;;25.76;42.46;100369.00;4961434;28;6959;-79
2022/06/29 06:36:33;;;;;;;;;;;;;;;25.92;42.18;100370.50;4979224;28;6780;-79
2022/06/29 06:38:59;;;;;;;;;;;;;;;26.09;42.30;100368.47;4979327;28;7646;-79
2022/06/29 06:41:27;;;;;;;;;;;;;;;26.29;42.44;100378.69;4950171;28;7034;-79
2022/06/29 06:43:55;;;;;;;;;;;;;;;26.47;41.93;100378.34;4960687;28;6959;-78
2022/06/29 06:46:23;;;;;;;;;;;;;;;26.66;41.67;100383.25;4947817;28;6792;-79
2022/06/29 06:48:50;;;;;;;;;;;;;;;26.89;41.46;100379.34;4942267;28;6973;-79
2022/06/29 06:51:21;;;;;;;;;;;;;;;27.11;41.01;100381.50;4954913;28;6955;-79
2022/06/29 06:53:48;;;;;;;;;;;;;;;27.30;40.14;100379.34;4953654;28;7260;-79
2022/06/29 06:56:15;;;;;;;;;;;;;;;27.47;40.24;100371.06;4983665;28;6792;-79
2022/06/29 06:58:41;;;;;;;;;;;;;;;27.66;39.63;100375.94;4955672;28;7107;-79
2022/06/29 07:01:09;;;;;;;;;;;;;;;27.92;39.91;100371.81;4978788;28;8330;-79
2022/06/29 07:03:38;;;;;;;;;;;;;;;28.25;39.23;100369.25;4948414;28;6990;-79
2022/06/29 07:06:08;;;;;;;;;;;;;;;28.47;38.79;100374.81;4981669;28;6820;-79
2022/06/29 07:08:37;;;;;;;;;;;;;;;28.61;38.32;100378.84;4977970;28;6998;-79
2022/06/29 07:11:05;;;;;;;;;;;;;;;28.67;38.03;100382.16;4936857;28;7158;-79
2022/06/29 07:13:34;;;;;;;;;;;;;;;28.72;38.02;100363.56;4938746;28;7248;-79
2022/06/29 07:16:05;;;;;;;;;;;;;;;28.76;37.68;100364.34;4954330;28;6812;-79
2022/06/29 07:18:32;;;;;;;;;;;;;;;28.72;37.23;100370.63;4954601;28;6804;-79
2022/06/29 07:20:59;;;;;;;;;;;;;;;28.64;36.96;100366.44;4958229;28;8149;-79
2022/06/29 07:23:25;;;;;;;;;;;;;;;28.57;37.34;100375.41;4929852;28;7011;-79
2022/06/29 07:25:50;;;;;;;;;;;;;;;28.48;37.25;100370.41;4966607;28;6957;-79
2022/06/29 07:28:16;;;;;;;;;;;;;;;28.39;36.97;100369.75;4953287;28;7352;-79
2022/06/29 07:30:42;;;;;;;;;;;;;;;28.28;36.58;100366.53;4979380;28;6964;-79
2022/06/29 07:33:09;;;;;;;;;;;;;;;28.16;36.95;100369.47;4961083;28;6803;-79
2022/06/29 07:35:36;;;;;;;;;;;;;;;28.02;37.22;100368.06;4962481;28;7002;-78
2022/06/29 07:38:01;;;;;;;;;;;;;;;27.85;36.86;100365.81;4957513;28;6927;-78
2022/06/29 07:40:28;;;;;;;;;;;;;;;27.68;36.79;100372.38;4949016;28;6966;-78
2022/06/29 07:42:54;;;;;;;;;;;;;;;27.51;37.13;100372.72;4945272;28;6982;-78
2022/06/29 07:45:20;;;;;;;;;;;;;;;27.38;37.71;100377.44;4951760;28;7217;-78
2022/06/29 07:47:45;;;;;;;;;;;;;;;27.30;38.18;100380.22;4945944;28;7237;-78
2022/06/29 07:50:12;;;;;;;;;;;;;;;27.26;38.45;100373.28;4943589;28;7036;-77
2022/06/29 07:52:39;;;;;;;;;;;;;;;27.26;39.04;100378.56;4975159;28;6808;-77
2022/06/29 07:55:06;;;;;;;;;;;;;;;27.28;39.20;100376.75;4976841;28;7207;-78
2022/06/29 07:57:31;;;;;;;;;;;;;;;27.33;40.02;100373.13;4973011;28;7860;-77
2022/06/29 07:59:57;;;;;;;;;;;;;;;27.43;39.86;100369.44;4960546;28;6792;-78
2022/06/29 08:02:23;;;;;;;;;;;;;;;27.56;40.19;100370.91;4948217;28;6776;-78
2022/06/29 08:04:48;;;;;;;;;;;;;;;27.69;39.40;100375.88;4978217;28;6788;-78
2022/06/29 08:07:14;;;;;;;;;;;;;;;27.78;39.60;100365.13;4959674;28;6776;-78
2022/06/29 08:09:39;;;;;;;;;;;;;;;27.88;39.30;100371.03;4948828;28;7256;-78
2022/06/29 08:12:05;;;;;;;;;;;;;;;27.96;39.47;100374.34;4959744;28;7691;-78
2022/06/29 08:14:31;;;;;;;;;;;;;;;28.04;39.05;100371.50;4965214;28;7242;-78
2022/06/29 08:16:57;;;;;;;;;;;;;;;28.11;38.71;100366.94;4976263;28;7238;-78
2022/06/29 08:19:22;;;;;;;;;;;;;;;28.19;38.59;100369.41;4943112;28;6776;-78
2022/06/29 08:21:48;;;;;;;;;;;;;;;28.25;38.30;100369.25;4955292;28;7259;-78
2022/06/29 08:24:14;;;;;;;;;;;;;;;28.33;38.83;100362.00;4947190;28;7174;-78
2022/06/29 08:26:39;;;;;;;;;;;;;;;28.42;38.52;100367.03;4959867;28;7203;-78
2022/06/29 08:29:05;;;;;;;;;;;;;;;28.56;38.48;100360.50;4939151;28;6951;-78
2022/06/29 08:31:31;;;;;;;;;;;;;;;28.72;38.97;100368.84;4963873;28;6974;-78
2022/06/29 08:33:56;;;;;;;;;;;;;;;28.90;38.53;100366.63;4977543;28;7219;-78
2022/06/29 08:36:22;;;;;;;;;;;;;;;29.03;37.94;100362.75;4959653;28;6923;-78
2022/06/29 08:38:48;;;;;;;;;;;;;;;29.20;37.45;100369.25;4973268;28;6998;-78
2022/06/29 08:41:15;;;;;;;;;;;;;;;29.34;36.75;100366.19;4947714;28;7172;-78
2022/06/29 08:43:42;;;;;;;;;;;;;;;29.53;37.18;100363.88;4964367;28;7180;-78
2022/06/29 08:46:12;;;;;;;;;;;;;;;29.72;37.05;100360.66;4975073;28;6796;-77
2022/06/29 08:48:37;;;;;;;;;;;;;;;29.90;35.67;100360.06;4977232;28;7395;-79
2022/06/29 08:51:04;;;;;;;;;;;;;;;30.07;36.02;100364.78;4949900;28;6956;-78
2022/06/29 08:53:33;;;;;;;;;;;;;;;30.30;35.21;100357.81;4971473;28;7229;-78
2022/06/29 08:56:01;;;;;;;;;;;;;;;30.58;35.15;100356.84;4950195;28;6800;-78
2022/06/29 08:58:27;;;;;;;;;;;;;;;30.84;34.89;100362.09;4964125;28;6800;-79
2022/06/29 09:00:54;;;;;;;;;;;;;;;31.05;33.73;100360.44;4966576;28;7180;-78
2022/06/29 09:03:22;;;;;;;;;;;;;;;31.22;33.22;100356.28;4950122;28;7327;-78
2022/06/29 09:05:50;;;;;;;;;;;;;;;31.26;32.88;100353.50;4975418;28;6855;-78
2022/06/29 09:08:20;;;;;;;;;;;;;;;31.23;32.38;100350.94;4947300;28;6965;-78
2022/06/29 09:10:47;;;;;;;;;;;;;;;31.20;32.66;100352.84;4956685;28;7043;-78
2022/06/29 09:13:24;;;;;;;;;;;;;;;31.16;33.61;100358.22;4939778;28;6966;-78
2022/06/29 09:16:00;;;;;;;;;;;;;;;31.20;32.87;100352.84;4971185;28;7092;-78
2022/06/29 09:18:30;;;;;;;;;;;;;;;31.23;32.99;100358.88;4932938;28;6983;-78
2022/06/29 09:21:02;;;;;;;;;;;;;;;31.25;32.75;100361.47;4951662;28;8339;-78
2022/06/29 09:23:30;;;;;;;;;;;;;;;31.19;32.92;100351.97;4946681;28;6987;-79
2022/06/29 09:25:56;;;;;;;;;;;;;;;31.14;33.12;100360.09;4952451;28;6796;-78
2022/06/29 09:28:29;;;;;;;;;;;;;;;31.10;34.05;100360.25;4929791;28;6978;-78
2022/06/29 09:30:57;;;;;;;;;;;;;;;31.08;34.07;100367.41;4947980;28;6828;-78
2022/06/29 09:33:26;;;;;;;;;;;;;;;31.07;34.09;100368.31;4934779;28;8526;-78
2022/06/29 09:36:14;;;;;;;;;;;;;;;31.18;35.22;100368.78;4959917;28;6804;-78
2022/06/29 09:38:41;;;;;;;;;;;;;;;31.38;35.16;100362.72;4941129;28;7252;-78
2022/06/29 09:41:10;;;;;;;;;;;;;;;31.64;34.21;100365.25;4940630;28;6800;-78
2022/06/29 09:43:39;;;;;;;;;;;;;;;31.84;33.96;100359.13;4961742;28;6804;-78
2022/06/29 09:46:06;;;;;;;;;;;;;;;32.04;34.32;100365.38;4957699;28;7230;-78
2022/06/29 09:48:35;;;;;;;;;;;;;;;32.23;33.74;100362.81;4933389;28;6990;-78
2022/06/29 09:51:30;;;;;;;;;;;;;;;32.35;33.12;100354.31;4956957;28;7045;-77
2022/06/29 09:54:06;;;;;;;;;;;;;;;32.50;32.52;100358.09;4956926;28;7009;-78
2022/06/29 09:56:34;;;;;;;;;;;;;;;32.67;32.13;100356.50;4924365;28;7262;-77
2022/06/29 09:59:04;;;;;;;;;;;;;;;32.87;32.32;100354.72;4972810;28;7223;-78
2022/06/29 10:04:15;;;;;;;;;;;;;;;33.51;31.12;100350.81;4951548;28;6812;-78
2022/06/29 10:06:42;;;;;;;;;;;;;;;33.73;30.48;100348.91;4956699;28;6785;-78
2022/06/29 10:09:08;;;;;;;;;;;;;;;33.91;30.04;100352.41;4954984;28;7471;-78
2022/06/29 10:15:09;;;;;;;;;;;;;;;35.21;29.39;100350.03;4960980;28;6800;-78
2022/06/29 10:17:58;;;;;;;;;;;;;;;35.99;28.44;100337.56;4948963;28;7283;-78
2022/06/29 10:20:41;;;;;;;;;;;;;;;36.26;26.40;100339.53;4929888;28;7235;-78
2022/06/29 10:23:06;;;;;;;;;;;;;;;36.30;26.37;100340.22;4960692;28;7455;-78
2022/06/29 10:25:32;;;;;;;;;;;;;;;36.38;26.20;100333.44;4960596;28;7230;-78
2022/06/29 10:28:17;;;;;;;;;;;;;;;36.52;27.08;100343.25;4979209;28;7384;-78
2022/06/29 10:30:44;;;;;;;;;;;;;;;36.61;26.83;100338.31;4935957;28;6816;-78
2022/06/29 10:33:29;;;;;;;;;;;;;;;36.65;26.74;100337.16;4944749;28;7050;-78
2022/06/29 10:36:06;;;;;;;;;;;;;;;36.73;26.56;100340.22;4943279;28;7002;-78
2022/06/29 10:38:57;;;;;;;;;;;;;;;36.87;25.39;100342.00;4948288;28;6800;-78
2022/06/29 10:44:07;;;;;;;;;;;;;;;37.15;25.16;100334.91;4958796;28;6963;-77
2022/06/29 10:46:58;;;;;;;;;;;;;;;37.21;24.84;100322.94;4955855;28;7203;-79
2022/06/29 10:49:25;;;;;;;;;;;;;;;37.51;24.25;100322.75;4950235;28;7121;-80
2022/06/29 10:51:51;;;;;;;;;;;;;;;38.06;23.64;100324.47;4972150;28;6944;-78
2022/06/29 10:54:22;;;;;;;;;;;;;;;38.67;22.52;100323.78;4952961;28;7093;-79
2022/06/29 10:56:48;;;;;;;;;;;;;;;39.23;21.73;100313.53;4939586;28;7169;-78
2022/06/29 10:59:37;;;;;;;;;;;;;;;39.82;20.91;100306.44;4958767;28;7564;-79
2022/06/29 11:02:15;;;;;;;;;;;;;;;40.15;20.29;100310.16;4942925;28;7216;-79
2022/06/29 11:04:43;;;;;;;;;;;;;;;40.39;20.32;100303.84;4945863;28;6960;-78
2022/06/29 11:13:06;;;;;;;;;;;;;;;41.19;19.79;100292.94;4958116;28;6812;-78
2022/06/29 11:15:39;;;;;;;;;;;;;;;41.22;19.51;100290.00;4940664;28;6983;-78
2022/06/29 11:18:07;;;;;;;;;;;;;;;41.28;19.37;100285.94;4942564;28;8119;-78
2022/06/29 11:20:33;;;;;;;;;;;;;;;41.31;18.69;100285.72;4955718;28;7078;-78
2022/06/29 11:22:59;;;;;;;;;;;;;;;41.29;18.80;100283.13;4929995;28;7136;-78
2022/06/29 11:25:26;;;;;;;;;;;;;;;41.23;18.27;100280.97;4951906;28;6788;-78
2022/06/29 11:27:52;;;;;;;;;;;;;;;41.25;18.11;100276.31;4975168;28;6942;-78
2022/06/29 11:30:22;;;;;;;;;;;;;;;41.33;18.02;100278.34;4944852;28;7949;-78
2022/06/29 11:32:50;;;;;;;;;;;;;;;41.39;17.27;100275.16;4943927;28;6792;-78
2022/06/29 11:35:22;;;;;;;;;;;;;;;41.44;17.48;100275.59;4959304;28;7138;-78
2022/06/29 11:38:05;;;;;;;;;;;;;;;41.55;17.52;100266.63;4945188;28;7926;-78
2022/06/29 11:40:41;;;;;;;;;;;;;;;41.75;16.80;100269.47;4955387;28;9094;-78
2022/06/29 11:43:18;;;;;;;;;;;;;;;41.93;17.09;100272.38;4977647;28;6978;-78
2022/06/29 11:45:52;;;;;;;;;;;;;;;41.96;16.68;100272.09;4976313;28;7285;-78
2022/06/29 11:48:24;;;;;;;;;;;;;;;41.79;16.41;100268.19;4956408;28;7617;-78
2022/06/29 11:50:53;;;;;;;;;;;;;;;41.72;16.72;100259.81;4959023;28;6984;-78
2022/06/29 11:53:41;;;;;;;;;;;;;;;41.59;16.88;100257.28;4946059;28;6975;-78
2022/06/29 11:56:17;;;;;;;;;;;;;;;41.52;17.22;100261.50;4966930;28;7119;-78
2022/06/29 11:58:49;;;;;;;;;;;;;;;41.65;17.61;100250.56;4947855;28;7243;-78
2022/06/29 12:01:18;;;;;;;;;;;;;;;41.91;17.03;100250.13;4957566;28;8299;-78
2022/06/29 12:03:51;;;;;;;;;;;;;;;41.99;16.10;100244.06;4959380;28;6901;-78
2022/06/29 12:06:19;;;;;;;;;;;;;;;41.96;16.55;100242.50;4960816;28;7204;-78
2022/06/29 12:08:46;;;;;;;;;;;;;;;41.89;16.66;100249.41;4949488;28;6843;-78
2022/06/29 12:11:12;;;;;;;;;;;;;;;41.83;16.66;100242.75;4952675;28;6908;-78
2022/06/29 12:13:38;;;;;;;;;;;;;;;41.85;16.61;100248.84;4933641;28;7281;-77
2022/06/29 12:16:04;;;;;;;;;;;;;;;41.76;16.42;100242.41;4956379;28;6840;-78
2022/06/29 12:18:30;;;;;;;;;;;;;;;41.67;16.50;100234.31;4960464;28;6791;-78
2022/06/29 12:20:57;;;;;;;;;;;;;;;41.58;16.51;100234.09;4978566;28;6965;-78
2022/06/29 12:23:23;;;;;;;;;;;;;;;41.60;16.59;100231.28;4958970;28;8253;-78
2022/06/29 12:25:49;;;;;;;;;;;;;;;41.68;16.78;100233.31;4974240;28;6784;-78
2022/06/29 12:28:14;;;;;;;;;;;;;;;41.73;16.96;100231.94;4979595;28;7224;-78
2022/06/29 12:30:41;;;;;;;;;;;;;;;41.80;16.43;100228.72;4978454;28;7231;-78
2022/06/29 12:33:09;;;;;;;;;;;;;;;41.71;16.55;100224.97;4962777;28;7100;-78
2022/06/29 12:35:36;;;;;;;;;;;;;;;41.69;16.43;100222.44;4961251;28;7248;-77
2022/06/29 12:38:02;;;;;;;;;;;;;;;41.72;16.35;100222.16;4955065;28;7060;-79
2022/06/29 12:40:32;;;;;;;;;;;;;;;41.70;16.66;100217.91;4977420;28;6811;-78
2022/06/29 12:42:58;;;;;;;;;;;;;;;41.61;16.38;100217.66;4963562;28;6964;-78
2022/06/29 12:45:24;;;;;;;;;;;;;;;41.50;16.77;100215.94;4974464;28;6788;-78
2022/06/29 12:47:51;;;;;;;;;;;;;;;41.48;16.78;100215.22;4941734;28;8372;-78
2022/06/29 12:50:17;;;;;;;;;;;;;;;41.49;16.73;100218.75;4951928;28;6784;-78
2022/06/29 12:52:46;;;;;;;;;;;;;;;41.46;16.73;100216.34;4974630;28;7271;-78
2022/06/29 12:55:16;;;;;;;;;;;;;;;41.32;16.83;100207.59;4962723;28;7106;-78
2022/06/29 12:57:43;;;;;;;;;;;;;;;41.30;16.95;100208.75;4975005;28;6804;-78
2022/06/29 13:00:12;;;;;;;;;;;;;;;41.35;17.02;100211.88;4977893;28;6800;-78
2022/06/29 13:02:39;;;;;;;;;;;;;;;41.36;16.49;100214.44;4956698;28;6796;-78
2022/06/29 13:05:07;;;;;;;;;;;;;;;41.31;16.73;100203.22;4934421;28;6988;-78
2022/06/29 13:07:34;;;;;;;;;;;;;;;41.22;16.95;100207.56;4959690;28;6867;-78